sensor_id;sensor_type;location;lat;lon;timestamp;pressure;altitude;pressure_sealevel;temperature;humidity
23223;BME280;11780;13.904;100.620;2023-09-18T16:04:04;101175.22;;;30.24;nan
23223;BME280;11780;13.904;100.620;2023-09-18T16:06:35;101169.72;;;30.24;nan
23223;BME280;11780;13.904;100.620;2023-09-18T16:09:05;101177.06;;;30.29;nan
23223;BME280;11780;13.904;100.620;2023-09-18T16:11:36;101177.25;;;30.32;nan
23223;BME280;11780;13.904;100.620;2023-09-18T16:14:14;101168.69;;;30.34;nan
23223;BME280;11780;13.904;100.620;2023-09-18T16:16:50;101177.03;;;30.43;nan
23223;BME280;11780;13.904;100.620;2023-09-18T16:19:21;101174.47;;;30.46;nan
23223;BME280;11780;13.904;100.620;2023-09-18T16:21:52;101177.13;;;30.51;nan
23223;BME280;11780;13.904;100.620;2023-09-18T16:24:22;101175.69;;;30.54;nan
23223;BME280;11780;13.904;100.620;2023-09-18T16:26:53;101179.50;;;30.58;nan
23223;BME280;11780;13.904;100.620;2023-09-18T16:29:24;101173.97;;;30.58;nan
23223;BME280;11780;13.904;100.620;2023-09-18T16:31:55;101180.47;;;30.62;nan
23223;BME280;11780;13.904;100.620;2023-09-18T16:34:26;101180.97;;;30.64;nan
23223;BME280;11780;13.904;100.620;2023-09-18T16:36:56;101186.50;;;30.64;nan
23223;BME280;11780;13.904;100.620;2023-09-18T16:39:27;101184.25;;;30.66;nan
23223;BME280;11780;13.904;100.620;2023-09-18T16:41:57;101192.53;;;30.66;nan
23223;BME280;11780;13.904;100.620;2023-09-18T16:44:28;101186.22;;;30.66;nan
23223;BME280;11780;13.904;100.620;2023-09-18T16:46:59;101192.22;;;30.68;nan
23223;BME280;11780;13.904;100.620;2023-09-18T16:49:29;101190.28;;;30.68;nan
23223;BME280;11780;13.904;100.620;2023-09-18T16:51:59;101191.41;;;30.67;nan
23223;BME280;11780;13.904;100.620;2023-09-18T16:54:30;101192.53;;;30.66;nan
23223;BME280;11780;13.904;100.620;2023-09-18T16:57:01;101183.44;;;30.66;nan
23223;BME280;11780;13.904;100.620;2023-09-18T16:59:32;101190.09;;;30.65;nan
23223;BME280;11780;13.904;100.620;2023-09-18T17:02:02;101182.63;;;30.65;nan
23223;BME280;11780;13.904;100.620;2023-09-18T17:04:46;101186.50;;;30.64;nan
23223;BME280;11780;13.904;100.620;2023-09-18T17:07:18;101176.59;;;30.63;nan
23223;BME280;11780;13.904;100.620;2023-09-18T17:10:20;101187.34;;;30.65;nan
23223;BME280;11780;13.904;100.620;2023-09-18T17:12:50;101173.53;;;30.65;nan
23223;BME280;11780;13.904;100.620;2023-09-18T17:15:36;101172.19;;;30.62;nan
23223;BME280;11780;13.904;100.620;2023-09-18T17:18:48;101173.31;;;30.61;nan
23223;BME280;11780;13.904;100.620;2023-09-18T17:21:18;101178.84;;;30.61;nan
23223;BME280;11780;13.904;100.620;2023-09-18T17:24:00;101173.31;;;30.61;nan
23223;BME280;11780;13.904;100.620;2023-09-18T17:26:37;101180.97;;;30.64;nan
23223;BME280;11780;13.904;100.620;2023-09-18T17:29:07;101174.66;;;30.64;nan
23223;BME280;11780;13.904;100.620;2023-09-18T17:31:37;101171.91;;;30.64;nan
23223;BME280;11780;13.904;100.620;2023-09-18T17:34:08;101171.06;;;30.63;nan
23223;BME280;11780;13.904;100.620;2023-09-18T17:36:47;101174.78;;;30.59;nan
23223;BME280;11780;13.904;100.620;2023-09-18T17:39:17;101176.09;;;30.61;nan
23223;BME280;11780;13.904;100.620;2023-09-18T17:42:06;101170.56;;;30.61;nan
23223;BME280;11780;13.904;100.620;2023-09-18T17:47:26;101175.28;;;30.61;nan
23223;BME280;11780;13.904;100.620;2023-09-18T17:50:15;101171.69;;;30.60;nan
23223;BME280;11780;13.904;100.620;2023-09-18T17:53:19;101170.88;;;30.60;nan
23223;BME280;11780;13.904;100.620;2023-09-18T17:56:06;101168.44;;;30.58;nan
23223;BME280;11780;13.904;100.620;2023-09-18T17:58:42;101170.56;;;30.61;nan
23223;BME280;11780;13.904;100.620;2023-09-18T18:01:39;101170.56;;;30.61;nan
23223;BME280;11780;13.904;100.620;2023-09-18T18:04:28;101169.44;;;30.62;nan
23223;BME280;11780;13.904;100.620;2023-09-18T18:06:58;101164.56;;;30.59;nan
23223;BME280;11780;13.904;100.620;2023-09-18T18:09:54;101157.88;;;30.60;nan
23223;BME280;11780;13.904;100.620;2023-09-18T18:12:28;101152.50;;;30.55;nan
23223;BME280;11780;13.904;100.620;2023-09-18T18:14:59;101146.16;;;30.55;nan
23223;BME280;11780;13.904;100.620;2023-09-18T18:17:47;101137.66;;;30.51;nan
23223;BME280;11780;13.904;100.620;2023-09-18T18:20:18;101141.25;;;30.51;nan
23223;BME280;11780;13.904;100.620;2023-09-18T18:22:51;101141.25;;;30.51;nan
23223;BME280;11780;13.904;100.620;2023-09-18T18:25:49;101142.25;;;30.56;nan
23223;BME280;11780;13.904;100.620;2023-09-18T18:28:25;101140.91;;;30.53;nan
23223;BME280;11780;13.904;100.620;2023-09-18T18:30:56;101138.69;;;30.55;nan
23223;BME280;11780;13.904;100.620;2023-09-18T18:33:26;101134.56;;;30.52;nan
23223;BME280;11780;13.904;100.620;2023-09-18T18:35:57;101131.00;;;30.52;nan
23223;BME280;11780;13.904;100.620;2023-09-18T18:38:28;101124.06;;;30.55;nan
23223;BME280;11780;13.904;100.620;2023-09-18T18:40:59;101127.31;;;30.57;nan
23223;BME280;11780;13.904;100.620;2023-09-18T18:43:36;101121.00;;;30.56;nan
23223;BME280;11780;13.904;100.620;2023-09-18T18:46:07;101121.41;;;30.49;nan
23223;BME280;11780;13.904;100.620;2023-09-18T18:48:40;101126.59;;;30.51;nan
23223;BME280;11780;13.904;100.620;2023-09-18T18:51:12;101123.84;;;30.51;nan
23223;BME280;11780;13.904;100.620;2023-09-18T18:53:46;101119.16;;;30.51;nan
23223;BME280;11780;13.904;100.620;2023-09-18T18:56:18;101116.69;;;30.50;nan
23223;BME280;11780;13.904;100.620;2023-09-18T18:58:49;101110.03;;;30.51;nan
23223;BME280;11780;13.904;100.620;2023-09-18T19:01:20;101120.47;;;30.54;nan
23223;BME280;11780;13.904;100.620;2023-09-18T19:03:54;101122.94;;;30.56;nan
23223;BME280;11780;13.904;100.620;2023-09-18T19:06:25;101125.06;;;30.59;nan
23223;BME280;11780;13.904;100.620;2023-09-18T19:08:55;101114.88;;;30.59;nan
23223;BME280;11780;13.904;100.620;2023-09-18T19:11:28;101113.69;;;30.60;nan
23223;BME280;11780;13.904;100.620;2023-09-18T19:13:59;101115.84;;;30.63;nan
23223;BME280;11780;13.904;100.620;2023-09-18T19:16:30;101115.56;;;30.65;nan
23223;BME280;11780;13.904;100.620;2023-09-18T19:19:09;101108.91;;;30.66;nan
23223;BME280;11780;13.904;100.620;2023-09-18T19:22:01;101106.44;;;30.64;nan
23223;BME280;11780;13.904;100.620;2023-09-18T19:24:31;101105.63;;;30.64;nan
23223;BME280;11780;13.904;100.620;2023-09-18T19:27:02;101100.41;;;30.62;nan
23223;BME280;11780;13.904;100.620;2023-09-18T19:29:34;101099.91;;;30.60;nan
23223;BME280;11780;13.904;100.620;2023-09-18T19:32:04;101090.50;;;30.61;nan
23223;BME280;11780;13.904;100.620;2023-09-18T19:34:35;101088.84;;;30.60;nan
23223;BME280;11780;13.904;100.620;2023-09-18T19:37:15;101090.81;;;30.60;nan
23223;BME280;11780;13.904;100.620;2023-09-18T19:40:05;101089.50;;;30.57;nan
23223;BME280;11780;13.904;100.620;2023-09-18T19:42:36;101085.63;;;30.58;nan
23223;BME280;11780;13.904;100.620;2023-09-18T19:48:06;101084.00;;;30.57;nan
23223;BME280;11780;13.904;100.620;2023-09-18T19:50:37;101081.22;;;30.57;nan
23223;BME280;11780;13.904;100.620;2023-09-18T19:53:08;101083.47;;;30.55;nan
23223;BME280;11780;13.904;100.620;2023-09-18T19:55:38;101082.09;;;30.52;nan
23223;BME280;11780;13.904;100.620;2023-09-18T19:58:09;101086.03;;;30.51;nan
23223;BME280;11780;13.904;100.620;2023-09-18T20:00:39;101078.56;;;30.52;nan
23223;BME280;11780;13.904;100.620;2023-09-18T20:03:10;101080.28;;;30.48;nan
23223;BME280;11780;13.904;100.620;2023-09-18T20:05:44;101086.66;;;30.48;nan
23223;BME280;11780;13.904;100.620;2023-09-18T20:08:17;101086.31;;;30.50;nan
23223;BME280;11780;13.904;100.620;2023-09-18T20:10:51;101078.66;;;30.47;nan
23223;BME280;11780;13.904;100.620;2023-09-18T20:13:23;101092.16;;;30.48;nan
23223;BME280;11780;13.904;100.620;2023-09-18T20:16:04;101090.22;;;30.49;nan
23223;BME280;11780;13.904;100.620;2023-09-18T20:18:36;101095.72;;;30.49;nan
23223;BME280;11780;13.904;100.620;2023-09-18T20:21:08;101096.84;;;30.48;nan
23223;BME280;11780;13.904;100.620;2023-09-18T20:23:42;101093.28;;;30.47;nan
23223;BME280;11780;13.904;100.620;2023-09-18T20:26:12;101097.69;;;30.48;nan
23223;BME280;11780;13.904;100.620;2023-09-18T20:28:43;101091.66;;;30.46;nan
23223;BME280;11780;13.904;100.620;2023-09-18T20:31:13;101095.22;;;30.47;nan
23223;BME280;11780;13.904;100.620;2023-09-18T20:33:44;101098.94;;;30.42;nan
23223;BME280;11780;13.904;100.620;2023-09-18T20:36:15;101094.41;;;30.46;nan
23223;BME280;11780;13.904;100.620;2023-09-18T20:38:46;101107.91;;;30.48;nan
23223;BME280;11780;13.904;100.620;2023-09-18T20:41:20;101097.69;;;30.48;nan
23223;BME280;11780;13.904;100.620;2023-09-18T20:43:50;101105.13;;;30.48;nan
23223;BME280;11780;13.904;100.620;2023-09-18T20:46:21;101096.06;;;30.47;nan
23223;BME280;11780;13.904;100.620;2023-09-18T20:48:51;101094.72;;;30.45;nan
23223;BME280;11780;13.904;100.620;2023-09-18T20:51:31;101093.41;;;30.42;nan
23223;BME280;11780;13.904;100.620;2023-09-18T20:54:03;101097.44;;;30.36;nan
23223;BME280;11780;13.904;100.620;2023-09-18T20:56:33;101092.72;;;30.36;nan
23223;BME280;11780;13.904;100.620;2023-09-18T20:59:06;101093.50;;;30.37;nan
23223;BME280;11780;13.904;100.620;2023-09-18T21:01:38;101091.91;;;30.36;nan
23223;BME280;11780;13.904;100.620;2023-09-18T21:04:10;101092.22;;;30.34;nan
23223;BME280;11780;13.904;100.620;2023-09-18T21:06:41;101093.22;;;30.38;nan
23223;BME280;11780;13.904;100.620;2023-09-18T21:09:12;101095.16;;;30.38;nan
23223;BME280;11780;13.904;100.620;2023-09-18T21:11:58;101098.13;;;30.42;nan
23223;BME280;11780;13.904;100.620;2023-09-18T21:14:41;101098.63;;;30.44;nan
23223;BME280;11780;13.904;100.620;2023-09-18T21:17:12;101088.41;;;30.44;nan
23223;BME280;11780;13.904;100.620;2023-09-18T21:19:45;101082.38;;;30.42;nan
23223;BME280;11780;13.904;100.620;2023-09-18T21:22:15;101091.97;;;30.45;nan
23223;BME280;11780;13.904;100.620;2023-09-18T21:24:46;101095.22;;;30.47;nan
23223;BME280;11780;13.904;100.620;2023-09-18T21:27:20;101077.88;;;30.46;nan
23223;BME280;11780;13.904;100.620;2023-09-18T21:30:00;101084.19;;;30.47;nan
23223;BME280;11780;13.904;100.620;2023-09-18T21:32:32;101074.59;;;30.44;nan
23223;BME280;11780;13.904;100.620;2023-09-18T21:35:03;101076.41;;;30.49;nan
23223;BME280;11780;13.904;100.620;2023-09-18T21:37:42;101075.91;;;30.47;nan
23223;BME280;11780;13.904;100.620;2023-09-18T21:40:14;101075.59;;;30.48;nan
23223;BME280;11780;13.904;100.620;2023-09-18T21:42:44;101068.44;;;30.47;nan
23223;BME280;11780;13.904;100.620;2023-09-18T21:45:18;101073.97;;;30.47;nan
23223;BME280;11780;13.904;100.620;2023-09-18T21:47:50;101064.56;;;30.48;nan
23223;BME280;11780;13.904;100.620;2023-09-18T21:50:22;101067.00;;;30.50;nan
23223;BME280;11780;13.904;100.620;2023-09-18T21:52:53;101068.44;;;30.47;nan
23223;BME280;11780;13.904;100.620;2023-09-18T21:55:24;101064.78;;;30.38;nan
23223;BME280;11780;13.904;100.620;2023-09-18T21:57:55;101067.25;;;30.40;nan
23223;BME280;11780;13.904;100.620;2023-09-18T22:00:25;101067.25;;;30.40;nan
23223;BME280;11780;13.904;100.620;2023-09-18T22:02:58;101078.28;;;30.40;nan
23223;BME280;11780;13.904;100.620;2023-09-18T22:05:29;101066.75;;;30.37;nan
23223;BME280;11780;13.904;100.620;2023-09-18T22:08:00;101072.78;;;30.40;nan
23223;BME280;11780;13.904;100.620;2023-09-18T22:10:30;101076.34;;;30.40;nan
23223;BME280;11780;13.904;100.620;2023-09-18T22:13:02;101078.81;;;30.42;nan
23223;BME280;11780;13.904;100.620;2023-09-18T22:15:32;101065.00;;;30.42;nan
23223;BME280;11780;13.904;100.620;2023-09-18T22:18:04;101073.06;;;30.38;nan
23223;BME280;11780;13.904;100.620;2023-09-18T22:20:35;101081.34;;;30.38;nan
23223;BME280;11780;13.904;100.620;2023-09-18T22:23:06;101070.97;;;30.35;nan
23223;BME280;11780;13.904;100.620;2023-09-18T22:25:37;101072.38;;;30.32;nan
23223;BME280;11780;13.904;100.620;2023-09-18T22:28:08;101088.66;;;30.34;nan
23223;BME280;11780;13.904;100.620;2023-09-18T22:30:39;101086.19;;;30.32;nan
23223;BME280;11780;13.904;100.620;2023-09-18T22:33:11;101085.38;;;30.32;nan
23223;BME280;11780;13.904;100.620;2023-09-18T22:35:42;101089.44;;;30.34;nan
23223;BME280;11780;13.904;100.620;2023-09-18T22:55:41;101096.16;;;30.42;nan
23223;BME280;11780;13.904;100.620;2023-09-18T22:58:13;101094.03;;;30.39;nan
23223;BME280;11780;13.904;100.620;2023-09-18T23:00:56;101095.97;;;30.38;nan
23223;BME280;11780;13.904;100.620;2023-09-18T23:03:28;101097.28;;;30.41;nan
23223;BME280;11780;13.904;100.620;2023-09-18T23:06:00;101098.22;;;30.36;nan
23223;BME280;11780;13.904;100.620;2023-09-18T23:08:30;101102.44;;;30.34;nan
23223;BME280;11780;13.904;100.620;2023-09-18T23:11:01;101098.06;;;30.33;nan
23223;BME280;11780;13.904;100.620;2023-09-18T23:13:35;101099.19;;;30.32;nan
23223;BME280;11780;13.904;100.620;2023-09-18T23:16:06;101096.94;;;30.34;nan
23223;BME280;11780;13.904;100.620;2023-09-18T23:18:39;101097.22;;;30.32;nan
23223;BME280;11780;13.904;100.620;2023-09-18T23:21:09;101099.69;;;30.34;nan
23223;BME280;11780;13.904;100.620;2023-09-18T23:23:40;101101.59;;;30.33;nan
23223;BME280;11780;13.904;100.620;2023-09-18T23:26:12;101099.19;;;30.32;nan
23223;BME280;11780;13.904;100.620;2023-09-18T23:28:42;101096.72;;;30.30;nan
23223;BME280;11780;13.904;100.620;2023-09-18T23:31:14;101096.72;;;30.30;nan
23223;BME280;11780;13.904;100.620;2023-09-18T23:33:45;101101.59;;;30.33;nan
23223;BME280;11780;13.904;100.620;2023-09-18T23:36:16;101095.28;;;30.33;nan
23223;BME280;11780;13.904;100.620;2023-09-18T23:38:47;101101.31;;;30.35;nan
23223;BME280;11780;13.904;100.620;2023-09-18T23:41:17;101093.34;;;30.33;nan
23223;BME280;11780;13.904;100.620;2023-09-18T23:44:01;101092.81;;;30.31;nan
23223;BME280;11780;13.904;100.620;2023-09-18T23:46:31;101098.34;;;30.31;nan
23223;BME280;11780;13.904;100.620;2023-09-18T23:49:02;101093.66;;;30.32;nan
23223;BME280;11780;13.904;100.620;2023-09-18T23:51:32;101090.56;;;30.33;nan
23223;BME280;11780;13.904;100.620;2023-09-18T23:54:04;101101.59;;;30.33;nan
23223;BME280;11780;13.904;100.620;2023-09-18T23:56:36;101108.75;;;30.34;nan
23223;BME280;11780;13.904;100.620;2023-09-18T23:59:07;101103.25;;;30.34;nan
